Portada
METAR-TAF:

METAR-TAF

Aeropuertos :

Perugia, Italia

latitud: 43-05N, longitud: 012-30E, altitud: 208 m

Observación

El informe se hizo hace 18 minutos, a las 11:20 UTC
Viento 12 kt del noreste
Temperatura 14°C
Humedad 41%
Presión 1016 hPa

METAR: LIRZ 161120Z AUTO 05012KT //// // NCD 14/01 Q1016

Hora: 13:38 (11:38 UTC)

Pronóstico

El informe se hizo hace 6 horas y 38 minutos, a las 05:00 UTC
Pronóstico válido del 16 a las 06 UTC al 17 a las 06 UTC
Viento 5 kt con dirección variable
Visibilidad 10 km o más
Nubes dispersas a una altura de 3000 ft
Evolucionando progresivamente
del 16 a las 08 UTC al 16 a las 10 UTC
Viento 10 kt del norte-noreste
Evolucionando progresivamente
del 16 a las 18 UTC al 16 a las 20 UTC
Viento 5 kt con dirección variable

TAF: LIRZ 160500Z 1606/1706 VRB05KT 9999 SCT030 BECMG 1608/1610 03010KT BECMG 1618/1620 VRB05KT

Observaciones y pronósticos meteorológicos de más de 4000 aeropuertos (mensajes METAR y TAF).

Los puntos amarillos y rojos representan las estaciones disponibles.

Ponga el ratón en el punto deseado para ver el nombre de la estación.

Haga clic para ver las observaciones y los pronósticos meteorológicos.

Para cambiar el mapa : haga clic en los botones verdes con una cruz de color negro para hacer un zoom, en el botón verde con un guión para alejar o en las flechas verdes para mapas adyacentes.


METAR-TAF: